createdAt,value
2023-12-28T00:02:16.748Z,9.98
2023-12-28T00:04:43.706Z,8.95
2023-12-28T00:07:10.578Z,6.03
2023-12-28T00:09:39.625Z,7.80
2023-12-28T00:12:06.895Z,6.95
2023-12-28T00:14:33.740Z,9.57
2023-12-28T00:17:00.574Z,6.00
2023-12-28T00:19:27.618Z,5.80
2023-12-28T00:21:54.630Z,7.32
2023-12-28T00:24:22.797Z,6.68
2023-12-28T00:26:50.102Z,7.82
2023-12-28T00:29:17.056Z,10.52
2023-12-28T00:31:44.029Z,6.85
2023-12-28T00:34:11.321Z,5.47
2023-12-28T00:36:38.485Z,6.85
2023-12-28T00:39:05.402Z,8.93
2023-12-28T00:41:32.309Z,9.63
2023-12-28T00:43:59.193Z,7.30
2023-12-28T00:46:26.095Z,9.15
2023-12-28T00:48:53.153Z,6.90
2023-12-28T00:51:20.664Z,5.35
2023-12-28T00:53:47.524Z,6.10
2023-12-28T00:56:14.434Z,10.25
2023-12-28T00:58:41.891Z,6.22
2023-12-28T01:01:09.675Z,6.95
2023-12-28T01:03:37.188Z,8.25
2023-12-28T01:06:06.339Z,6.80
2023-12-28T01:08:35.140Z,10.35
2023-12-28T01:11:03.542Z,8.40
2023-12-28T01:13:31.747Z,8.07
2023-12-28T01:15:58.802Z,7.35
2023-12-28T01:18:25.916Z,7.20
2023-12-28T01:20:53.032Z,10.15
2023-12-28T01:23:19.978Z,7.95
2023-12-28T01:25:46.831Z,8.63
2023-12-28T01:28:13.652Z,9.52
2023-12-28T01:30:40.643Z,7.68
2023-12-28T01:33:07.572Z,7.97
2023-12-28T01:35:34.569Z,4.97
2023-12-28T01:38:02.941Z,6.55
2023-12-28T01:40:30.190Z,7.75
2023-12-28T01:42:57.199Z,5.70
2023-12-28T01:45:24.178Z,4.90
2023-12-28T01:47:53.694Z,6.20
2023-12-28T01:50:22.651Z,6.38
2023-12-28T01:52:50.771Z,6.50
2023-12-28T01:55:18.504Z,4.30
2023-12-28T01:57:46.500Z,9.82
2023-12-28T02:00:14.047Z,6.88
2023-12-28T02:02:42.994Z,7.78
2023-12-28T02:05:14.823Z,7.35
2023-12-28T02:07:42.176Z,5.38
2023-12-28T02:10:09.285Z,5.88
2023-12-28T02:12:36.469Z,9.38
2023-12-28T02:15:03.738Z,8.48
2023-12-28T02:17:48.204Z,5.10
2023-12-28T02:20:16.572Z,7.38
2023-12-28T02:22:44.184Z,7.53
2023-12-28T02:25:14.531Z,4.50
2023-12-28T02:27:44.237Z,6.22
2023-12-28T02:30:19.114Z,7.55
2023-12-28T02:32:57.911Z,5.28
2023-12-28T02:35:30.269Z,7.95
2023-12-28T02:38:02.843Z,7.07
2023-12-28T02:40:32.034Z,8.60
2023-12-28T02:42:59.000Z,8.45
2023-12-28T02:45:26.996Z,8.23
2023-12-28T02:47:54.011Z,5.88
2023-12-28T02:50:20.867Z,7.50
2023-12-28T02:52:47.786Z,5.30
2023-12-28T02:55:14.681Z,8.95
2023-12-28T02:57:41.622Z,7.72
2023-12-28T03:00:12.113Z,5.97
2023-12-28T03:02:39.689Z,6.38
2023-12-28T03:05:07.317Z,9.98
2023-12-28T03:07:34.995Z,9.77
2023-12-28T03:10:03.951Z,6.30
2023-12-28T03:12:31.583Z,7.05
2023-12-28T03:14:58.585Z,6.93
2023-12-28T03:17:25.418Z,6.78
2023-12-28T03:19:52.608Z,7.00
2023-12-28T03:22:19.611Z,5.45
2023-12-28T03:24:47.398Z,5.35
2023-12-28T03:27:15.108Z,7.70
2023-12-28T03:29:45.641Z,8.05
2023-12-28T03:32:12.531Z,10.00
2023-12-28T03:34:40.484Z,4.97
2023-12-28T03:37:07.474Z,10.38
2023-12-28T03:39:35.241Z,8.25
2023-12-28T03:42:02.144Z,10.95
2023-12-28T03:44:28.987Z,10.00
2023-12-28T03:46:57.135Z,7.20
2023-12-28T03:49:24.061Z,8.70
2023-12-28T03:51:52.060Z,7.47
2023-12-28T03:54:19.975Z,10.35
2023-12-28T03:56:47.909Z,10.07
2023-12-28T03:59:18.054Z,5.22
2023-12-28T04:01:45.725Z,7.53
2023-12-28T04:04:12.782Z,10.93
2023-12-28T04:06:40.094Z,6.60
2023-12-28T04:09:07.103Z,6.22
2023-12-28T04:11:34.260Z,8.88
2023-12-28T04:14:02.155Z,9.65
2023-12-28T04:16:28.950Z,6.88
2023-12-28T04:18:55.861Z,7.95
2023-12-28T04:21:23.090Z,7.93
2023-12-28T04:23:49.990Z,8.85
2023-12-28T04:26:20.658Z,6.85
2023-12-28T04:28:47.617Z,11.73
2023-12-28T04:31:14.582Z,8.45
2023-12-28T04:33:41.650Z,6.45
2023-12-28T04:36:08.840Z,7.57
2023-12-28T04:38:35.983Z,8.40
2023-12-28T04:41:03.309Z,10.40
2023-12-28T04:43:30.286Z,7.93
2023-12-28T04:45:57.215Z,9.10
2023-12-28T04:48:27.145Z,10.88
2023-12-28T04:50:54.322Z,6.63
2023-12-28T04:53:21.404Z,7.35
2023-12-28T04:55:48.398Z,9.38
2023-12-28T04:58:15.629Z,5.40
2023-12-28T05:00:42.922Z,7.57
2023-12-28T05:03:10.088Z,7.65
2023-12-28T05:05:37.285Z,7.65
2023-12-28T05:08:04.822Z,8.65
2023-12-28T05:10:31.669Z,5.95
2023-12-28T05:13:01.752Z,8.85
2023-12-28T05:15:30.315Z,9.48
2023-12-28T05:17:58.316Z,6.18
2023-12-28T05:20:25.617Z,9.50
2023-12-28T05:22:52.544Z,10.18
2023-12-28T05:25:19.468Z,8.05
2023-12-28T05:27:46.437Z,6.80
2023-12-28T05:30:13.856Z,8.90
2023-12-28T05:32:41.142Z,7.80
2023-12-28T05:35:08.704Z,10.82
2023-12-28T05:37:35.806Z,7.50
2023-12-28T05:40:03.108Z,8.23
2023-12-28T05:42:30.110Z,7.95
2023-12-28T05:44:57.039Z,7.00
2023-12-28T05:47:25.146Z,11.15
2023-12-28T05:49:53.162Z,10.20
2023-12-28T05:52:20.782Z,11.40
2023-12-28T05:54:49.482Z,8.27
2023-12-28T05:57:16.792Z,13.20
2023-12-28T05:59:43.880Z,10.10
2023-12-28T06:02:10.901Z,12.00
2023-12-28T06:04:38.021Z,11.05
2023-12-28T06:07:06.005Z,10.50
2023-12-28T06:09:33.211Z,11.73
2023-12-28T06:12:00.309Z,7.72
2023-12-28T06:14:27.190Z,13.30
2023-12-28T06:16:54.068Z,10.93
2023-12-28T06:19:21.303Z,9.18
2023-12-28T06:21:48.262Z,13.88
2023-12-28T06:24:15.455Z,11.93
2023-12-28T06:26:46.362Z,12.95
2023-12-28T06:29:13.701Z,10.07
2023-12-28T06:31:41.195Z,10.40
2023-12-28T06:34:09.064Z,7.82
2023-12-28T06:36:36.822Z,17.05
2023-12-28T06:39:04.551Z,17.48
2023-12-28T06:41:31.689Z,10.20
2023-12-28T06:43:58.646Z,10.55
2023-12-28T06:46:25.618Z,10.27
2023-12-28T06:48:52.767Z,13.07
2023-12-28T06:51:21.154Z,15.18
2023-12-28T06:53:48.514Z,13.05
2023-12-28T06:56:16.057Z,12.35
2023-12-28T06:58:43.253Z,15.50
2023-12-28T07:01:10.353Z,14.52
2023-12-28T07:03:37.970Z,15.07
2023-12-28T07:06:05.757Z,17.23
2023-12-28T07:08:35.392Z,15.00
2023-12-28T07:11:05.097Z,17.13
2023-12-28T07:13:32.515Z,25.45
2023-12-28T07:16:00.280Z,20.30
2023-12-28T07:18:28.641Z,21.73
2023-12-28T07:20:55.967Z,22.20
2023-12-28T07:23:23.185Z,21.75
2023-12-28T07:25:50.155Z,20.27
2023-12-28T07:28:17.007Z,27.05
2023-12-28T07:30:44.304Z,20.73
2023-12-28T07:33:11.570Z,17.58
2023-12-28T07:35:43.317Z,16.35
2023-12-28T07:38:10.190Z,21.15
2023-12-28T07:40:37.196Z,21.27
2023-12-28T07:43:04.804Z,22.98
2023-12-28T07:45:31.995Z,21.45
2023-12-28T07:48:02.102Z,18.92
2023-12-28T07:50:29.325Z,16.98
2023-12-28T07:52:56.206Z,17.15
2023-12-28T07:55:24.268Z,19.25
2023-12-28T07:57:51.203Z,23.42
2023-12-28T08:00:18.368Z,26.83
2023-12-28T08:02:45.427Z,21.55
2023-12-28T08:05:12.937Z,19.20
2023-12-28T08:07:51.779Z,24.67
2023-12-28T08:10:18.649Z,21.30
2023-12-28T08:12:51.214Z,16.67
2023-12-28T08:15:29.636Z,18.85
2023-12-28T08:18:09.185Z,19.27
2023-12-28T08:20:45.136Z,19.08
2023-12-28T08:23:18.184Z,18.90
2023-12-28T08:25:48.769Z,23.60
2023-12-28T08:28:19.395Z,25.92
2023-12-28T08:30:46.309Z,21.55
2023-12-28T08:33:16.701Z,24.17
2023-12-28T08:35:49.838Z,25.45
2023-12-28T08:38:40.642Z,27.42
2023-12-28T08:41:10.285Z,23.45
2023-12-28T08:43:43.066Z,25.00
2023-12-28T08:46:10.110Z,24.83
2023-12-28T08:48:49.038Z,33.80
2023-12-28T08:51:21.641Z,30.95
2023-12-28T08:54:19.024Z,28.33
2023-12-28T08:57:04.071Z,27.52
2023-12-28T08:59:40.426Z,23.60
2023-12-28T09:02:10.447Z,21.42
2023-12-28T09:04:40.380Z,21.08
2023-12-28T09:07:14.289Z,21.30
2023-12-28T09:09:52.135Z,23.90
2023-12-28T09:12:22.039Z,25.83
2023-12-28T09:14:53.931Z,27.85
2023-12-28T09:17:29.467Z,28.90
2023-12-28T09:20:05.305Z,23.13
2023-12-28T09:22:43.924Z,29.65
2023-12-28T09:25:13.613Z,28.17
2023-12-28T09:27:49.345Z,30.08
2023-12-28T09:30:25.618Z,33.22
2023-12-28T09:32:58.694Z,29.38
2023-12-28T09:35:31.384Z,30.88
2023-12-28T09:38:01.244Z,32.58
2023-12-28T09:40:30.772Z,24.33
2023-12-28T09:42:58.146Z,23.23
2023-12-28T09:45:25.362Z,20.25
2023-12-28T09:47:53.483Z,24.45
2023-12-28T09:50:27.840Z,30.25
2023-12-28T09:52:58.074Z,22.48
2023-12-28T09:55:26.484Z,16.70
2023-12-28T09:57:53.583Z,20.90
2023-12-28T10:00:23.273Z,25.52
2023-12-28T10:02:56.247Z,23.38
2023-12-28T10:05:25.986Z,26.98
2023-12-28T10:07:59.144Z,22.67
2023-12-28T10:10:36.595Z,21.42
2023-12-28T10:13:11.967Z,21.98
2023-12-28T10:15:42.138Z,26.33
2023-12-28T10:18:09.112Z,26.85
2023-12-28T10:20:36.159Z,27.17
2023-12-28T10:23:12.585Z,30.20
2023-12-28T10:25:43.013Z,19.13
2023-12-28T10:28:13.728Z,29.38
2023-12-28T10:30:50.046Z,22.58
2023-12-28T10:33:32.668Z,19.83
2023-12-28T10:36:10.194Z,17.55
2023-12-28T10:38:49.712Z,27.73
2023-12-28T10:41:26.802Z,31.85
2023-12-28T10:44:12.749Z,24.48
2023-12-28T10:46:45.081Z,30.65
2023-12-28T10:49:21.519Z,26.05
2023-12-28T10:52:00.053Z,30.50
2023-12-28T10:57:53.283Z,20.13
2023-12-28T11:00:38.604Z,23.23
2023-12-28T11:03:32.035Z,33.28
2023-12-28T11:06:08.158Z,22.60
2023-12-28T11:08:36.858Z,21.63
2023-12-28T11:11:11.508Z,33.22
2023-12-28T11:13:42.686Z,24.75
2023-12-28T11:16:16.571Z,21.85
2023-12-28T11:18:47.578Z,18.30
2023-12-28T11:21:21.534Z,19.95
2023-12-28T11:23:54.523Z,22.38
2023-12-28T11:26:25.678Z,13.93
2023-12-28T11:29:20.902Z,21.85
2023-12-28T11:31:59.632Z,19.20
2023-12-28T11:34:30.978Z,22.25
2023-12-28T11:37:23.361Z,21.25
2023-12-28T11:39:59.053Z,16.23
2023-12-28T11:42:29.587Z,18.33
2023-12-28T11:45:02.648Z,17.30
2023-12-28T11:47:47.813Z,18.27
2023-12-28T11:50:17.907Z,15.52
2023-12-28T11:52:50.181Z,18.70
2023-12-28T11:55:28.478Z,24.17
2023-12-28T11:58:04.397Z,16.00
2023-12-28T12:03:19.922Z,15.70
2023-12-28T12:05:46.863Z,20.73
2023-12-28T12:08:15.380Z,17.95
2023-12-28T12:10:42.548Z,20.20
2023-12-28T12:13:10.515Z,16.77
2023-12-28T12:15:54.310Z,19.73
2023-12-28T12:18:44.200Z,18.33
2023-12-28T12:21:24.317Z,13.00
2023-12-28T12:23:59.036Z,15.32
2023-12-28T12:26:32.712Z,22.58
2023-12-28T12:29:29.241Z,19.10
2023-12-28T12:32:03.186Z,29.08
2023-12-28T12:34:33.099Z,16.35
2023-12-28T12:37:09.532Z,17.83
2023-12-28T12:39:42.706Z,15.13
2023-12-28T12:42:17.760Z,18.55
2023-12-28T12:44:54.850Z,16.70
2023-12-28T12:47:27.713Z,18.85
2023-12-28T12:50:00.051Z,17.23
2023-12-28T12:52:32.844Z,17.48
2023-12-28T12:55:14.827Z,14.77
2023-12-28T12:57:55.179Z,17.35
2023-12-28T13:00:34.149Z,20.45
2023-12-28T13:03:01.554Z,25.50
2023-12-28T13:05:43.285Z,23.83
2023-12-28T13:08:12.822Z,23.58
2023-12-28T13:10:45.620Z,19.52
2023-12-28T13:13:18.752Z,26.10
2023-12-28T13:15:48.310Z,25.45
2023-12-28T13:18:17.993Z,26.17
2023-12-28T13:20:59.878Z,25.55
2023-12-28T13:23:30.125Z,18.92
2023-12-28T13:26:08.442Z,18.83
2023-12-28T13:28:38.038Z,16.40
2023-12-28T13:31:11.048Z,24.75
2023-12-28T13:33:50.492Z,22.80
2023-12-28T13:36:18.549Z,19.13
2023-12-28T13:38:49.128Z,17.52
2023-12-28T13:41:18.012Z,16.35
2023-12-28T13:43:53.314Z,18.83
2023-12-28T13:46:23.805Z,20.90
2023-12-28T13:48:56.800Z,18.95
2023-12-28T13:51:24.198Z,20.33
2023-12-28T13:53:56.746Z,23.17
2023-12-28T13:56:35.495Z,19.90
2023-12-28T13:59:14.162Z,17.05
2023-12-28T14:01:41.903Z,19.73
2023-12-28T14:04:14.952Z,20.83
2023-12-28T14:07:00.547Z,23.02
2023-12-28T14:09:27.431Z,14.10
2023-12-28T14:11:54.461Z,20.23
2023-12-28T14:14:27.060Z,17.25
2023-12-28T14:16:53.960Z,18.35
2023-12-28T14:19:23.208Z,14.18
2023-12-28T14:21:50.567Z,20.05
2023-12-28T14:24:23.199Z,24.60
2023-12-28T14:26:53.399Z,19.65
2023-12-28T14:29:20.811Z,22.85
2023-12-28T14:31:54.890Z,19.92
2023-12-28T14:34:27.826Z,20.65
2023-12-28T14:36:55.452Z,21.70
2023-12-28T14:39:28.111Z,21.98
2023-12-28T14:42:13.369Z,18.15
2023-12-28T14:44:46.083Z,17.42
2023-12-28T14:47:15.736Z,14.10
2023-12-28T14:49:46.246Z,16.70
2023-12-28T14:52:16.370Z,19.67
2023-12-28T14:54:47.093Z,25.35
2023-12-28T14:57:14.033Z,23.10
2023-12-28T14:59:52.426Z,25.10
2023-12-28T15:02:25.146Z,18.40
2023-12-28T15:04:55.214Z,21.77
2023-12-28T15:07:25.239Z,21.67
2023-12-28T15:09:57.146Z,25.73
2023-12-28T15:12:36.386Z,20.83
2023-12-28T15:15:11.138Z,19.73
2023-12-28T15:17:48.060Z,19.85
2023-12-28T15:20:30.753Z,19.27
2023-12-28T15:23:06.153Z,22.23
2023-12-28T15:25:33.057Z,19.38
2023-12-28T15:28:05.706Z,16.00
2023-12-28T15:30:35.266Z,17.38
2023-12-28T15:33:05.390Z,17.58
2023-12-28T15:35:41.712Z,23.33
2023-12-28T15:38:17.429Z,18.92
2023-12-28T15:40:51.240Z,18.83
2023-12-28T15:43:29.982Z,20.58
2023-12-28T15:46:02.963Z,17.40
2023-12-28T15:48:33.796Z,20.13
2023-12-28T15:51:02.541Z,20.38
2023-12-28T15:53:29.414Z,21.15
2023-12-28T15:56:04.904Z,20.67
2023-12-28T15:58:41.662Z,23.38
2023-12-28T16:01:08.766Z,17.13
2023-12-28T16:03:35.653Z,18.85
2023-12-28T16:06:02.656Z,21.48
2023-12-28T16:08:29.467Z,20.55
2023-12-28T16:10:58.891Z,19.83
2023-12-28T16:13:26.555Z,20.05
2023-12-28T16:15:53.930Z,26.08
2023-12-28T16:18:23.502Z,22.45
2023-12-28T16:20:50.747Z,18.98
2023-12-28T16:23:17.905Z,16.42
2023-12-28T16:25:44.791Z,22.63
2023-12-28T16:28:12.085Z,22.75
2023-12-28T16:30:40.531Z,22.65
2023-12-28T16:33:07.674Z,25.80
2023-12-28T16:35:34.571Z,21.88
2023-12-28T16:38:01.749Z,26.00
2023-12-28T16:40:28.714Z,18.73
2023-12-28T16:42:55.745Z,23.55
2023-12-28T16:45:24.081Z,21.77
2023-12-28T16:47:51.768Z,22.45
2023-12-28T16:50:20.349Z,24.02
2023-12-28T16:52:47.358Z,23.13
2023-12-28T16:55:14.391Z,27.98
2023-12-28T16:57:41.294Z,25.60
2023-12-28T17:00:12.007Z,24.98
2023-12-28T17:02:40.057Z,24.90
2023-12-28T17:05:08.124Z,24.10
2023-12-28T17:07:35.261Z,28.25
2023-12-28T17:10:04.777Z,28.38
2023-12-28T17:12:35.539Z,27.13
2023-12-28T17:15:02.602Z,30.25
2023-12-28T17:17:29.681Z,31.27
2023-12-28T17:19:56.951Z,30.92
2023-12-28T17:22:28.441Z,31.70
2023-12-28T17:25:22.387Z,27.63
2023-12-28T17:27:55.809Z,29.95
2023-12-28T17:30:27.937Z,24.25
2023-12-28T17:32:59.435Z,29.15
2023-12-28T17:35:28.016Z,28.27
2023-12-28T17:37:55.473Z,29.75
2023-12-28T17:40:23.233Z,25.95
2023-12-28T17:42:55.510Z,29.30
2023-12-28T17:46:13.114Z,24.35
2023-12-28T17:48:42.456Z,28.38
2023-12-28T17:51:11.885Z,25.20
2023-12-28T17:53:39.049Z,33.38
2023-12-28T17:56:06.119Z,27.35
2023-12-28T17:58:32.922Z,23.27
2023-12-28T18:00:59.940Z,24.52
2023-12-28T18:03:27.229Z,25.48
2023-12-28T18:05:54.173Z,27.80
2023-12-28T18:08:22.739Z,27.35
2023-12-28T18:10:49.608Z,22.23
2023-12-28T18:13:16.583Z,24.17
2023-12-28T18:15:43.815Z,20.35
2023-12-28T18:18:10.789Z,20.58
2023-12-28T18:20:39.322Z,21.95
2023-12-28T18:23:06.179Z,23.52
2023-12-28T18:25:33.174Z,21.00
2023-12-28T18:28:01.413Z,21.35
2023-12-28T18:30:28.892Z,25.85
2023-12-28T18:32:56.700Z,21.25
2023-12-28T18:35:26.482Z,27.50
2023-12-28T18:37:53.340Z,23.73
2023-12-28T18:40:21.693Z,21.27
2023-12-28T18:42:49.428Z,23.77
2023-12-28T18:45:16.495Z,20.73
2023-12-28T18:47:43.669Z,19.98
2023-12-28T18:50:10.703Z,19.52
2023-12-28T18:52:37.595Z,18.48
2023-12-28T18:55:05.659Z,18.77
2023-12-28T18:57:32.551Z,24.75
2023-12-28T18:59:59.883Z,25.63
2023-12-28T19:02:28.810Z,22.25
2023-12-28T19:04:56.430Z,24.10
2023-12-28T19:07:25.055Z,25.77
2023-12-28T19:09:51.995Z,26.90
2023-12-28T19:12:18.914Z,27.67
2023-12-28T19:14:46.416Z,18.60
2023-12-28T19:17:13.773Z,23.65
2023-12-28T19:19:40.993Z,31.17
2023-12-28T19:22:08.015Z,26.98
2023-12-28T19:24:34.870Z,22.55
2023-12-28T19:27:01.768Z,20.75
2023-12-28T19:29:28.781Z,22.80
2023-12-28T19:31:56.551Z,23.83
2023-12-28T19:34:23.615Z,21.83
2023-12-28T19:36:50.521Z,18.30
2023-12-28T19:39:17.475Z,16.63
2023-12-28T19:41:44.535Z,15.85
2023-12-28T19:44:13.366Z,21.50
2023-12-28T19:46:40.334Z,17.35
2023-12-28T19:49:07.315Z,17.95
2023-12-28T19:51:34.866Z,23.58
2023-12-28T19:54:01.918Z,17.50
2023-12-28T19:56:29.752Z,22.60
2023-12-28T19:58:56.604Z,19.80
2023-12-28T20:01:23.777Z,16.50
2023-12-28T20:03:50.699Z,13.85
2023-12-28T20:06:17.637Z,15.25
2023-12-28T20:08:44.771Z,15.68
2023-12-28T20:11:11.639Z,15.77
2023-12-28T20:13:38.624Z,18.50
2023-12-28T20:16:07.227Z,16.35
2023-12-28T20:18:34.539Z,15.27
2023-12-28T20:21:02.274Z,15.18
2023-12-28T20:23:29.150Z,12.70
2023-12-28T20:25:56.009Z,13.23
2023-12-28T20:28:22.965Z,12.88
2023-12-28T20:30:49.905Z,14.32
2023-12-28T20:33:17.640Z,13.35
2023-12-28T20:35:46.490Z,15.73
2023-12-28T20:38:13.472Z,15.05
2023-12-28T20:40:40.372Z,15.13
2023-12-28T20:43:07.374Z,13.57
2023-12-28T20:45:34.446Z,16.33
2023-12-28T20:48:02.711Z,17.15
2023-12-28T20:50:30.056Z,15.80
2023-12-28T20:52:57.316Z,17.17
2023-12-28T20:55:24.476Z,14.80
2023-12-28T20:57:51.497Z,19.50
2023-12-28T21:00:18.545Z,15.80
2023-12-28T21:02:45.612Z,14.38
2023-12-28T21:05:13.388Z,13.90
2023-12-28T21:07:40.514Z,15.63
2023-12-28T21:10:07.863Z,15.55
2023-12-28T21:12:38.656Z,13.95
2023-12-28T21:15:09.331Z,15.82
2023-12-28T21:17:36.299Z,15.35
2023-12-28T21:20:03.921Z,16.60
2023-12-28T21:22:30.982Z,18.33
2023-12-28T21:24:57.838Z,14.52
2023-12-28T21:27:24.759Z,17.23
2023-12-28T21:29:51.651Z,16.55
2023-12-28T21:32:20.565Z,16.42
2023-12-28T21:34:47.644Z,14.02
2023-12-28T21:37:14.711Z,15.82
2023-12-28T21:39:42.333Z,15.23
2023-12-28T21:42:09.283Z,16.10
2023-12-28T21:44:36.161Z,18.38
2023-12-28T21:47:03.078Z,15.70
2023-12-28T21:49:29.985Z,18.52
2023-12-28T21:51:58.905Z,18.83
2023-12-28T21:54:26.117Z,19.10
2023-12-28T21:56:53.073Z,15.43
2023-12-28T21:59:23.413Z,15.40
2023-12-28T22:01:52.966Z,20.00
2023-12-28T22:04:23.472Z,17.48
2023-12-28T22:06:51.654Z,14.70
2023-12-28T22:09:19.720Z,16.23
2023-12-28T22:11:47.081Z,18.65
2023-12-28T22:14:14.032Z,14.73
2023-12-28T22:16:40.911Z,17.73
2023-12-28T22:19:07.942Z,16.55
2023-12-28T22:21:34.924Z,20.33
2023-12-28T22:24:02.816Z,18.75
2023-12-28T22:26:29.642Z,15.27
2023-12-28T22:28:56.620Z,17.17
2023-12-28T22:31:23.941Z,19.67
2023-12-28T22:33:51.216Z,16.20
2023-12-28T22:36:18.690Z,16.25
2023-12-28T22:38:45.482Z,18.50
2023-12-28T22:41:12.319Z,22.80
2023-12-28T22:43:39.173Z,19.15
2023-12-28T22:46:06.000Z,20.45
2023-12-28T22:48:33.037Z,19.75
2023-12-28T22:51:00.023Z,18.42
2023-12-28T22:53:26.893Z,19.25
2023-12-28T22:55:53.701Z,18.23
2023-12-28T22:58:20.578Z,20.92
2023-12-28T23:00:47.815Z,20.92
2023-12-28T23:03:14.906Z,15.50
2023-12-28T23:05:41.944Z,21.45
2023-12-28T23:08:08.939Z,17.67
2023-12-28T23:10:35.818Z,22.83
2023-12-28T23:13:02.784Z,19.27
2023-12-28T23:15:31.032Z,18.45
2023-12-28T23:18:00.056Z,20.00
2023-12-28T23:20:27.463Z,20.13
2023-12-28T23:22:54.282Z,18.20
2023-12-28T23:25:22.047Z,20.13
2023-12-28T23:27:49.794Z,20.40
2023-12-28T23:30:18.274Z,15.43
2023-12-28T23:32:45.774Z,18.73
2023-12-28T23:35:12.994Z,19.35
2023-12-28T23:37:40.171Z,19.35
2023-12-28T23:40:07.842Z,18.88
2023-12-28T23:42:36.714Z,17.15
2023-12-28T23:45:04.068Z,23.45
2023-12-28T23:47:30.956Z,15.70
2023-12-28T23:49:57.925Z,18.58
2023-12-28T23:52:24.825Z,16.88
2023-12-28T23:54:51.707Z,20.02
2023-12-28T23:57:18.628Z,15.68
2023-12-28T23:59:45.481Z,18.92
